Auburn, CA

1:38 PM PDT on August 21, 2014 (GMT -0700)
North Auburn | Change Station
CLOSE
Current Station
Personal Weather Station
Location: Auburn, CA
Elevation: 1542 ft
Nearby Weather Stations

Elev 1542 ft 38.97 °N, 121.08 °W | Updated 10 seconds ago

Clear
Clear
86.3 °F
Feels Like 85 °F
N
0.0
Wind Variable Wind from SW
Gusts 0.0 mph

Today
High -- | Low -- °F
--% Chance of Precip.
Yesterday
High -- | Low -- °F
Precip. -- in
6:23 AM 7:51 PM
Waning Crescent, 12% visible
Pressure 29.97 in
Visibility 10.0 miles
Clouds Clear
Heat Index 85 °F
Dew Point 55 °F
Humidity 35%
Rainfall 0.00 in
Snow Depth Not available.
UV 5.5 out of 12
Pollen 6.60 out of 12
Ozone Good
Flu Activity Not available.
METAR KAUN 212035Z AUTO 20008KT 10SM CLR 29/11 A2997 RMK AO1

More Conditions Fewer Conditions

Pressure 29.97 in
Visibility 10.0 miles
Clouds Clear
Heat Index 85 °F
Dew Point 55 °F
Humidity 35%
Rainfall 0.00 in
Snow Depth Not available.
UV 5.5 out of 12
Pollen 6.60 out of 12
Ozone Good
Flu Activity Not available.
METAR KAUN 212035Z AUTO 20008KT 10SM CLR 29/11 A2997 RMK AO1

More Conditions Fewer Conditions

10-Day Weather Forecast

Almanac

Astronomy

Aug. 21, 2014 Rise Set
Actual Time 6:23 AM PDT 7:51 PM PDT
Civil Twilight 5:55 AM PDT 8:18 PM PDT
Nautical Twilight 5:21 AM PDT 8:52 PM PDT
Astronomical Twilight 4:46 AM PDT 9:28 PM PDT
Moon 2:59 AM PDT 5:22 PM PDT
Length of Visible Light 14h 23m
Length of Day
13h 27m
Tomorrow will be 2m 20s shorter.
Waning Crescent, 12% of the Moon is Illuminated
Today
Waning Crescent
Aug 25
New
Sep 2
First Quarter
Sep 8
Full
Sep 15
Last Quarter

Today's Extremes

State Highs State Lows

Community

WunderPhotos

Upload Photos

1,746,018 photos uploaded!

WunderBlogs® & News

Nearby

Air Quality

  Air Quality AQ Index Pollutant
Yesterday Good
OZONE
Current Good
OZONE
Thursday Moderate
OZONE
Friday Moderate
OZONE
Saturday Moderate
OZONE
Sunday Moderate
OZONE
Monday Moderate
OZONE
Tuesday Moderate
OZONE

Snow Depth

Station Depth Elevation
CSS Lab 1 in 6900 ft
Tahoe City Cross 0 in 6750 ft
Leavitt Meadows 0 in 7200 ft
Adin Mountain 0 in 6200 ft
Cedar Pass 0 in 7100 ft

Earthquake Activity

City Distance Mag. Time & Date
Berkeley, California 98 miles 2.6 7:41 PM PDT
2014-08-16
Minimum magnitude displayed is 2.5.

Coastal Water Temperatures

Place Temperature
No Stations Reporting

Nearby Weather Stations